createdAt,value
2019-01-24T13:35:56.668Z,10.23
2019-01-24T19:52:51.000Z,10.83
2019-01-24T19:57:56.305Z,8.20
2019-01-24T20:03:03.379Z,9.33
2019-01-24T20:08:09.829Z,8.00
2019-01-24T20:13:14.808Z,10.00
2019-01-24T20:18:21.628Z,10.10
2019-01-24T20:23:26.878Z,10.60
2019-01-24T20:28:31.628Z,8.60
2019-01-24T20:33:36.338Z,9.50
2019-01-24T20:38:41.272Z,9.57
2019-01-24T20:43:47.575Z,8.87
2019-01-24T20:48:52.227Z,8.87
2019-01-24T20:53:56.900Z,8.57
2019-01-24T20:59:01.545Z,8.53
2019-01-24T21:04:07.644Z,7.47
2019-01-24T21:09:14.865Z,7.73
2019-01-24T21:14:19.791Z,8.03
2019-01-24T21:19:24.464Z,9.00
2019-01-24T21:24:30.688Z,8.93
2019-01-24T21:29:39.290Z,8.47
2019-01-24T21:34:44.864Z,10.03
2019-01-24T21:39:49.552Z,9.37
2019-01-24T21:44:54.548Z,9.97
2019-01-24T21:49:59.448Z,8.50
2019-01-24T21:55:05.559Z,10.20
2019-01-24T22:00:14.200Z,9.30
2019-01-24T22:05:21.039Z,9.90
2019-01-24T22:10:27.039Z,10.03
2019-01-24T22:15:31.862Z,10.57
2019-01-24T22:20:36.669Z,10.43
2019-01-24T22:25:41.432Z,10.70
2019-01-24T22:30:50.351Z,10.77
2019-01-24T22:35:56.843Z,9.40
2019-01-24T22:41:01.502Z,11.47
2019-01-24T22:46:06.235Z,10.87
2019-01-24T22:51:11.235Z,11.50
2019-01-24T22:56:19.404Z,9.97
2019-01-24T23:01:52.671Z,11.93
2019-01-24T23:06:58.999Z,12.60
2019-01-24T23:12:04.220Z,11.73
2019-01-24T23:17:09.404Z,10.97
2019-01-24T23:22:20.044Z,10.70
2019-01-24T23:27:24.677Z,11.53
2019-01-24T23:32:29.547Z,10.90
2019-01-24T23:37:35.440Z,12.87
2019-01-24T23:42:40.491Z,12.63
2019-01-24T23:47:45.148Z,11.90
2019-01-24T23:52:50.022Z,11.07
2019-01-24T23:57:56.028Z,10.57
